Terminal Aerodrome Forecast
Issued by NWS Mt. Holly, NJ

Current Version | Previous Version | Text Only | Print | Product List | Glossary On
Versions: 1 2 3 4 5 6 7 8 9 10 11 12 13 14 15 16 17 18 19 20 21
000
FTUS41 KPHI 110808 AAB
TAFILG
TAF AMD
KILG 110808Z 1108/1206 27005KT P6SM -SHRA SCT030 OVC080
      TEMPO 1108/1110 5SM -TSRA FEW008 BKN025 OVC035CB
     FM111000 29005KT P6SM SCT050 BKN120
     FM111500 31008KT P6SM SCT040
     FM120200 33005KT P6SM FEW050 BKN250=

USA.gov is the U.S. government's official web portal to all federal, state and local government web resources and services.